createdAt,value
2019-06-08T00:00:55.000Z,86
2019-06-08T00:02:57.000Z,86
2019-06-08T00:04:20.000Z,85
2019-06-08T00:06:21.000Z,85
2019-06-08T00:07:44.000Z,85
2019-06-08T00:09:45.000Z,85
2019-06-08T00:11:07.000Z,85
2019-06-08T00:13:11.000Z,85
2019-06-08T00:14:36.000Z,84
2019-06-08T00:16:42.000Z,84
2019-06-08T00:18:05.000Z,85
2019-06-08T00:20:09.000Z,85
2019-06-08T00:21:34.000Z,85
2019-06-08T00:23:35.000Z,85
2019-06-08T00:25:00.000Z,84
2019-06-08T00:27:03.000Z,85
2019-06-08T00:28:27.000Z,85
2019-06-08T00:30:30.000Z,85
2019-06-08T00:31:54.000Z,85
2019-06-08T00:33:58.000Z,85
2019-06-08T00:35:24.000Z,85
2019-06-08T00:37:28.000Z,86
2019-06-08T00:38:53.000Z,86
2019-06-08T00:40:54.000Z,85
2019-06-08T00:42:19.000Z,85
2019-06-08T00:44:22.000Z,85
2019-06-08T00:45:46.000Z,84
2019-06-08T00:47:49.000Z,85
2019-06-08T00:49:13.000Z,85
2019-06-08T00:51:15.000Z,85
2019-06-08T00:52:38.000Z,85
2019-06-08T00:54:41.000Z,85
2019-06-08T00:56:09.000Z,85
2019-06-08T00:58:13.000Z,85
2019-06-08T00:59:36.000Z,85
2019-06-08T01:01:40.000Z,86
2019-06-08T01:03:11.000Z,86
2019-06-08T01:05:20.000Z,86
2019-06-08T01:06:46.000Z,86
2019-06-08T01:08:49.000Z,86
2019-06-08T01:10:13.000Z,86
2019-06-08T01:12:20.000Z,86
2019-06-08T01:13:46.000Z,86
2019-06-08T01:15:49.000Z,87
2019-06-08T01:17:12.000Z,87
2019-06-08T01:19:16.000Z,87
2019-06-08T01:20:40.000Z,87
2019-06-08T01:22:46.000Z,87
2019-06-08T01:24:11.000Z,87
2019-06-08T01:26:15.000Z,87
2019-06-08T01:27:40.000Z,87
2019-06-08T01:29:42.000Z,87
2019-06-08T01:31:05.000Z,88
2019-06-08T01:33:13.000Z,87
2019-06-08T01:34:37.000Z,87
2019-06-08T01:36:43.000Z,88
2019-06-08T01:38:10.000Z,88
2019-06-08T01:40:13.000Z,87
2019-06-08T01:41:36.000Z,87
2019-06-08T01:43:44.000Z,87
2019-06-08T01:45:08.000Z,87
2019-06-08T01:47:19.000Z,87
2019-06-08T01:48:44.000Z,87
2019-06-08T01:50:48.000Z,87
2019-06-08T01:52:19.000Z,87
2019-06-08T01:54:22.000Z,87
2019-06-08T01:55:49.000Z,88
2019-06-08T01:57:55.000Z,88
2019-06-08T01:59:23.000Z,88
2019-06-08T02:01:29.000Z,88
2019-06-08T02:02:59.000Z,88
2019-06-08T02:05:10.000Z,88
2019-06-08T02:06:40.000Z,88
2019-06-08T02:08:44.000Z,88
2019-06-08T02:10:14.000Z,88
2019-06-08T02:12:22.000Z,88
2019-06-08T02:13:53.000Z,88
2019-06-08T02:16:02.000Z,88
2019-06-08T02:17:31.000Z,88
2019-06-08T02:19:41.000Z,88
2019-06-08T02:21:12.000Z,88
2019-06-08T02:23:23.000Z,88
2019-06-08T02:24:49.000Z,88
2019-06-08T02:26:54.000Z,88
2019-06-08T02:28:23.000Z,88
2019-06-08T02:30:34.000Z,88
2019-06-08T02:32:07.000Z,88
2019-06-08T02:34:16.000Z,88
2019-06-08T02:35:46.000Z,88
2019-06-08T02:39:30.000Z,88
2019-06-08T02:40:22.000Z,88
2019-06-08T02:41:52.000Z,88
2019-06-08T02:44:00.000Z,88
2019-06-08T02:45:27.000Z,88
2019-06-08T02:47:38.000Z,88
2019-06-08T02:49:06.000Z,88
2019-06-08T02:51:16.000Z,88
2019-06-08T02:52:48.000Z,88
2019-06-08T02:54:56.000Z,88
2019-06-08T02:56:28.000Z,89
2019-06-08T02:58:39.000Z,88
2019-06-08T03:00:13.000Z,88
2019-06-08T03:02:31.000Z,89
2019-06-08T03:04:03.000Z,88
2019-06-08T03:06:13.000Z,88
2019-06-08T03:07:43.000Z,88
2019-06-08T03:09:48.000Z,88
2019-06-08T03:11:19.000Z,88
2019-06-08T03:13:29.000Z,88
2019-06-08T03:15:05.000Z,88
2019-06-08T03:17:21.000Z,88
2019-06-08T03:18:49.000Z,89
2019-06-08T03:20:57.000Z,89
2019-06-08T03:22:32.000Z,89
2019-06-08T03:26:00.000Z,88
2019-06-08T03:27:22.000Z,89
2019-06-08T03:29:23.000Z,88
2019-06-08T03:30:45.000Z,88
2019-06-08T03:32:55.000Z,88
2019-06-08T03:34:19.000Z,88
2019-06-08T03:36:20.000Z,88
2019-06-08T03:37:42.000Z,88
2019-06-08T03:39:45.000Z,88
2019-06-08T03:41:07.000Z,88
2019-06-08T03:43:09.000Z,88
2019-06-08T03:44:31.000Z,88
2019-06-08T03:46:32.000Z,88
2019-06-08T03:47:53.000Z,87
2019-06-08T03:49:54.000Z,87
2019-06-08T03:51:19.000Z,87
2019-06-08T03:53:26.000Z,87
2019-06-08T03:54:48.000Z,87
2019-06-08T03:56:50.000Z,86
2019-06-08T03:58:13.000Z,86
2019-06-08T04:00:14.000Z,86
2019-06-08T04:01:36.000Z,86
2019-06-08T04:03:39.000Z,86
2019-06-08T04:05:03.000Z,86
2019-06-08T04:07:05.000Z,85
2019-06-08T04:08:27.000Z,86
2019-06-08T04:10:28.000Z,86
2019-06-08T04:11:50.000Z,85
2019-06-08T04:13:51.000Z,85
2019-06-08T04:15:14.000Z,85
2019-06-08T04:17:15.000Z,86
2019-06-08T04:18:38.000Z,85
2019-06-08T04:20:43.000Z,86
2019-06-08T04:22:13.000Z,86
2019-06-08T04:24:15.000Z,86
2019-06-08T04:25:38.000Z,86
2019-06-08T04:27:42.000Z,86
2019-06-08T04:29:07.000Z,86
2019-06-08T04:31:09.000Z,86
2019-06-08T04:32:31.000Z,85
2019-06-08T04:34:34.000Z,86
2019-06-08T04:35:57.000Z,85
2019-06-08T04:37:58.000Z,85
2019-06-08T04:39:21.000Z,85
2019-06-08T04:41:24.000Z,84
2019-06-08T04:42:47.000Z,84
2019-06-08T04:44:52.000Z,84
2019-06-08T04:46:15.000Z,84
2019-06-08T04:48:18.000Z,83
2019-06-08T04:49:41.000Z,83
2019-06-08T04:51:45.000Z,83
2019-06-08T04:53:09.000Z,83
2019-06-08T04:55:11.000Z,84
2019-06-08T04:56:33.000Z,84
2019-06-08T04:58:35.000Z,83
2019-06-08T04:59:58.000Z,84
2019-06-08T05:02:02.000Z,84
2019-06-08T05:03:27.000Z,83
2019-06-08T05:05:28.000Z,83
2019-06-08T05:06:53.000Z,83
2019-06-08T05:08:56.000Z,83
2019-06-08T05:10:20.000Z,83
2019-06-08T05:12:21.000Z,82
2019-06-08T05:13:45.000Z,82
2019-06-08T05:15:51.000Z,82
2019-06-08T05:17:14.000Z,82
2019-06-08T05:19:17.000Z,82
2019-06-08T05:20:41.000Z,82
2019-06-08T05:22:49.000Z,82
2019-06-08T05:24:12.000Z,82
2019-06-08T05:26:15.000Z,81
2019-06-08T05:27:38.000Z,81
2019-06-08T05:29:41.000Z,81
2019-06-08T05:31:05.000Z,81
2019-06-08T05:33:09.000Z,81
2019-06-08T05:34:32.000Z,81
2019-06-08T05:36:38.000Z,80
2019-06-08T05:38:05.000Z,81
2019-06-08T05:40:15.000Z,81
2019-06-08T05:41:37.000Z,81
2019-06-08T05:43:42.000Z,80
2019-06-08T05:45:06.000Z,80
2019-06-08T05:47:09.000Z,80
2019-06-08T05:48:32.000Z,79
2019-06-08T05:50:38.000Z,78
2019-06-08T05:52:27.000Z,77
2019-06-08T05:54:28.000Z,78
2019-06-08T05:55:53.000Z,77
2019-06-08T05:57:59.000Z,77
2019-06-08T05:59:24.000Z,75
2019-06-08T06:01:30.000Z,74
2019-06-08T06:02:56.000Z,74
2019-06-08T06:04:58.000Z,75
2019-06-08T06:06:21.000Z,74
2019-06-08T06:08:25.000Z,71
2019-06-08T06:09:51.000Z,72
2019-06-08T06:11:55.000Z,73
2019-06-08T06:13:18.000Z,72
2019-06-08T06:15:24.000Z,71
2019-06-08T06:16:46.000Z,72
2019-06-08T06:18:53.000Z,72
2019-06-08T06:20:20.000Z,72
2019-06-08T06:22:22.000Z,71
2019-06-08T06:23:50.000Z,71
2019-06-08T06:25:55.000Z,71
2019-06-08T06:27:20.000Z,70
2019-06-08T06:29:30.000Z,71
2019-06-08T06:30:53.000Z,70
2019-06-08T06:32:55.000Z,69
2019-06-08T06:34:17.000Z,70
2019-06-08T06:36:23.000Z,70
2019-06-08T06:37:50.000Z,71
2019-06-08T06:39:58.000Z,71
2019-06-08T06:41:25.000Z,70
2019-06-08T06:43:32.000Z,71
2019-06-08T06:44:58.000Z,70
2019-06-08T06:47:05.000Z,68
2019-06-08T06:48:38.000Z,68
2019-06-08T06:50:45.000Z,69
2019-06-08T06:52:14.000Z,68
2019-06-08T06:54:24.000Z,69
2019-06-08T06:55:57.000Z,68
2019-06-08T06:58:03.000Z,68
2019-06-08T06:59:30.000Z,67
2019-06-08T07:01:44.000Z,68
2019-06-08T07:03:11.000Z,68
2019-06-08T07:05:20.000Z,67
2019-06-08T07:06:44.000Z,67
2019-06-08T07:08:54.000Z,67
2019-06-08T07:10:22.000Z,67
2019-06-08T07:12:29.000Z,65
2019-06-08T07:13:58.000Z,65
2019-06-08T07:16:04.000Z,65
2019-06-08T07:17:46.000Z,65
2019-06-08T07:19:53.000Z,64
2019-06-08T07:21:24.000Z,65
2019-06-08T07:23:33.000Z,65
2019-06-08T07:28:45.000Z,65
2019-06-08T07:33:55.000Z,66
2019-06-08T07:35:17.000Z,66
2019-06-08T07:37:18.000Z,66
2019-06-08T07:38:41.000Z,65
2019-06-08T07:40:42.000Z,64
2019-06-08T07:42:04.000Z,64
2019-06-08T07:47:42.000Z,62
2019-06-08T07:49:09.000Z,63
2019-06-08T07:54:31.000Z,62
2019-06-08T07:55:05.000Z,62
2019-06-08T07:56:27.000Z,63
2019-06-08T08:02:08.000Z,63
2019-06-08T08:03:31.000Z,61
2019-06-08T08:05:32.000Z,62
2019-06-08T08:10:37.000Z,62
2019-06-08T08:19:20.000Z,59
2019-06-08T08:20:42.000Z,60
2019-06-08T08:22:45.000Z,60
2019-06-08T08:24:11.000Z,60
2019-06-08T08:26:12.000Z,62
2019-06-08T08:29:27.000Z,60
2019-06-08T08:30:54.000Z,59
2019-06-08T08:36:36.000Z,60
2019-06-08T08:38:00.000Z,59
2019-06-08T08:41:58.000Z,59
2019-06-08T08:43:28.000Z,60
2019-06-08T08:47:21.000Z,61
2019-06-08T09:05:00.000Z,60
2019-06-08T09:06:25.000Z,60
2019-06-08T09:08:28.000Z,61
2019-06-08T09:09:51.000Z,60
2019-06-08T09:12:03.000Z,59
2019-06-08T09:13:27.000Z,59
2019-06-08T09:15:29.000Z,59
2019-06-08T09:16:54.000Z,59
2019-06-08T09:18:59.000Z,59
2019-06-08T09:20:26.000Z,57
2019-06-08T09:24:02.000Z,57
2019-06-08T09:26:10.000Z,57
2019-06-08T10:59:56.000Z,54
2019-06-08T11:05:01.000Z,56
2019-06-08T11:06:29.000Z,54
2019-06-08T11:08:31.000Z,54
2019-06-08T11:09:53.000Z,54
2019-06-08T11:13:47.000Z,55
2019-06-08T11:17:05.000Z,54
2019-06-08T11:18:31.000Z,54
2019-06-08T11:20:32.000Z,54
2019-06-08T11:21:54.000Z,53
2019-06-08T11:23:57.000Z,55
2019-06-08T11:25:40.000Z,53
2019-06-08T11:35:03.000Z,54
2019-06-08T11:36:26.000Z,54
2019-06-08T11:38:30.000Z,55
2019-06-08T11:39:52.000Z,55
2019-06-08T11:41:53.000Z,54
2019-06-08T11:43:15.000Z,55
2019-06-08T11:45:19.000Z,54
2019-06-08T11:46:41.000Z,55
2019-06-08T11:48:43.000Z,54
2019-06-08T11:50:05.000Z,54
2019-06-08T11:52:12.000Z,54
2019-06-08T11:53:34.000Z,55
2019-06-08T11:55:35.000Z,54
2019-06-08T11:57:00.000Z,55
2019-06-08T11:59:01.000Z,54
2019-06-08T12:00:23.000Z,54
2019-06-08T12:02:31.000Z,55
2019-06-08T12:05:47.000Z,54
2019-06-08T12:09:05.000Z,53
2019-06-08T12:12:28.000Z,52
2019-06-08T12:13:50.000Z,53
2019-06-08T12:21:00.000Z,52
2019-06-08T12:23:07.000Z,54
2019-06-08T12:24:29.000Z,53
2019-06-08T12:26:42.000Z,55
2019-06-08T12:28:04.000Z,55
2019-06-08T12:33:27.000Z,54
2019-06-08T12:35:34.000Z,53
2019-06-08T12:36:56.000Z,53
2019-06-08T12:40:52.000Z,53
2019-06-08T12:42:14.000Z,55
2019-06-08T12:44:23.000Z,54
2019-06-08T12:58:27.000Z,53
2019-06-08T12:59:49.000Z,52
2019-06-08T13:01:50.000Z,53
2019-06-08T13:03:12.000Z,53
2019-06-08T13:05:13.000Z,53
2019-06-08T13:08:32.000Z,52
2019-06-08T13:11:46.000Z,51
2019-06-08T13:13:12.000Z,51
2019-06-08T13:15:13.000Z,51
2019-06-08T13:16:36.000Z,53
2019-06-08T13:18:39.000Z,53
2019-06-08T13:20:02.000Z,52
2019-06-08T13:22:03.000Z,53
2019-06-08T13:23:25.000Z,52
2019-06-08T13:25:29.000Z,53
2019-06-08T13:27:03.000Z,52
2019-06-08T13:29:04.000Z,51
2019-06-08T13:30:26.000Z,52
2019-06-08T13:32:32.000Z,52
2019-06-08T13:33:55.000Z,52
2019-06-08T13:35:56.000Z,53
2019-06-08T13:37:20.000Z,53
2019-06-08T13:39:23.000Z,51
2019-06-08T13:44:33.000Z,51
2019-06-08T13:45:55.000Z,51
2019-06-08T13:49:52.000Z,53
2019-06-08T13:51:15.000Z,52
2019-06-08T13:53:21.000Z,52
2019-06-08T14:00:06.000Z,50
2019-06-08T14:02:13.000Z,50
2019-06-08T14:03:35.000Z,50
2019-06-08T14:18:37.000Z,49
2019-06-08T14:24:06.000Z,49
2019-06-08T14:36:10.000Z,47
2019-06-08T14:37:32.000Z,48
2019-06-08T14:39:33.000Z,49
2019-06-08T14:40:56.000Z,50
2019-06-08T14:42:57.000Z,50
2019-06-08T14:44:20.000Z,49
2019-06-08T14:46:23.000Z,48
2019-06-08T14:47:46.000Z,46
2019-06-08T14:49:48.000Z,46
2019-06-08T14:51:10.000Z,46
2019-06-08T15:14:00.000Z,49
2019-06-08T15:17:26.000Z,50
2019-06-08T15:18:51.000Z,49
2019-06-08T15:22:45.000Z,50
2019-06-08T15:24:07.000Z,49
2019-06-08T15:26:08.000Z,50
2019-06-08T15:39:01.000Z,46
2019-06-08T15:40:23.000Z,45
2019-06-08T15:42:24.000Z,45
2019-06-08T15:43:50.000Z,45
2019-06-08T15:45:51.000Z,45
2019-06-08T15:47:13.000Z,46
2019-06-08T15:49:14.000Z,46
2019-06-08T15:50:36.000Z,45
2019-06-08T15:52:38.000Z,47
2019-06-08T15:54:01.000Z,47
2019-06-08T15:56:01.000Z,47
2019-06-08T15:57:23.000Z,48
2019-06-08T15:59:25.000Z,49
2019-06-08T16:00:55.000Z,49
2019-06-08T16:02:56.000Z,47
2019-06-08T16:04:18.000Z,47
2019-06-08T16:06:19.000Z,47
2019-06-08T16:09:40.000Z,47
2019-06-08T16:12:55.000Z,47
2019-06-08T16:14:17.000Z,47
2019-06-08T16:16:17.000Z,47
2019-06-08T16:17:40.000Z,46
2019-06-08T16:24:54.000Z,49
2019-06-08T16:28:53.000Z,51
2019-06-08T16:30:15.000Z,51
2019-06-08T16:32:16.000Z,51
2019-06-08T16:33:38.000Z,51
2019-06-08T16:37:33.000Z,50
2019-06-08T16:38:55.000Z,49
2019-06-08T16:40:56.000Z,49
2019-06-08T16:42:18.000Z,50
2019-06-08T16:44:19.000Z,50
2019-06-08T16:49:17.000Z,49
2019-06-08T16:50:39.000Z,49
2019-06-08T16:52:40.000Z,50
2019-06-08T16:54:02.000Z,49
2019-06-08T16:56:03.000Z,50
2019-06-08T16:57:25.000Z,49
2019-06-08T16:59:26.000Z,49
2019-06-08T17:00:49.000Z,50
2019-06-08T17:02:50.000Z,49
2019-06-08T17:04:12.000Z,51
2019-06-08T17:06:13.000Z,49
2019-06-08T17:07:35.000Z,49
2019-06-08T17:09:36.000Z,49
2019-06-08T17:10:59.000Z,50
2019-06-08T17:13:00.000Z,49
2019-06-08T17:14:25.000Z,49
2019-06-08T17:16:26.000Z,49
2019-06-08T17:17:48.000Z,49
2019-06-08T17:23:30.000Z,49
2019-06-08T17:24:54.000Z,49
2019-06-08T17:26:56.000Z,48
2019-06-08T17:28:18.000Z,47
2019-06-08T17:30:19.000Z,47
2019-06-08T17:31:41.000Z,48
2019-06-08T17:33:42.000Z,48
2019-06-08T17:35:04.000Z,48
2019-06-08T17:37:05.000Z,48
2019-06-08T17:38:29.000Z,48
2019-06-08T17:40:30.000Z,48
2019-06-08T17:41:53.000Z,49
2019-06-08T17:43:54.000Z,50
2019-06-08T17:45:16.000Z,50
2019-06-08T17:47:17.000Z,50
2019-06-08T17:48:40.000Z,49
2019-06-08T17:50:41.000Z,50
2019-06-08T17:52:05.000Z,50
2019-06-08T17:54:06.000Z,50
2019-06-08T17:55:28.000Z,50
2019-06-08T17:59:24.000Z,52
2019-06-08T18:00:47.000Z,51
2019-06-08T18:02:47.000Z,52
2019-06-08T18:04:10.000Z,51
2019-06-08T18:06:11.000Z,52
2019-06-08T18:07:33.000Z,52
2019-06-08T18:09:34.000Z,53
2019-06-08T18:10:58.000Z,53
2019-06-08T18:12:59.000Z,53
2019-06-08T18:14:21.000Z,53
2019-06-08T18:16:22.000Z,53
2019-06-08T18:17:44.000Z,53
2019-06-08T18:19:49.000Z,53
2019-06-08T18:21:11.000Z,53
2019-06-08T18:23:16.000Z,53
2019-06-08T18:26:35.000Z,54
2019-06-08T18:29:49.000Z,55
2019-06-08T18:32:59.000Z,55
2019-06-08T18:34:21.000Z,55
2019-06-08T18:36:22.000Z,55
2019-06-08T18:37:44.000Z,56
2019-06-08T18:39:49.000Z,56
2019-06-08T18:41:11.000Z,56
2019-06-08T18:43:12.000Z,57
2019-06-08T18:44:34.000Z,57
2019-06-08T18:46:35.000Z,57
2019-06-08T18:48:02.000Z,57
2019-06-08T18:57:06.000Z,58
2019-06-08T18:59:16.000Z,59
2019-06-08T19:00:40.000Z,59
2019-06-08T19:02:45.000Z,60
2019-06-08T19:13:17.000Z,61
2019-06-08T19:18:25.000Z,62
2019-06-08T19:19:50.000Z,62
2019-06-08T19:21:53.000Z,62
2019-06-08T19:23:15.000Z,63
2019-06-08T19:27:22.000Z,63
2019-06-08T19:28:44.000Z,64
2019-06-08T19:30:53.000Z,64
2019-06-08T19:32:17.000Z,64
2019-06-08T19:34:18.000Z,65
2019-06-08T19:35:40.000Z,64
2019-06-08T19:37:42.000Z,65
2019-06-08T19:39:06.000Z,65
2019-06-08T19:41:08.000Z,65
2019-06-08T19:42:30.000Z,65
2019-06-08T19:44:43.000Z,66
2019-06-08T19:46:21.000Z,67
2019-06-08T19:48:21.000Z,67
2019-06-08T19:49:44.000Z,67
2019-06-08T19:51:53.000Z,67
2019-06-08T19:55:10.000Z,68
